sensor_id;sensor_type;location;lat;lon;timestamp;pressure;altitude;pressure_sealevel;temperature;humidity
57024;BME280;42916;54.346;18.562;2023-04-29T00:00:06;100334.33;;;4.76;79.11
57024;BME280;42916;54.346;18.562;2023-04-29T00:03:00;100330.92;;;4.70;78.84
57024;BME280;42916;54.346;18.562;2023-04-29T00:05:27;100331.48;;;4.68;78.34
57024;BME280;42916;54.346;18.562;2023-04-29T00:07:54;100329.42;;;4.66;78.27
57024;BME280;42916;54.346;18.562;2023-04-29T00:10:20;100329.98;;;4.64;77.82
57024;BME280;42916;54.346;18.562;2023-04-29T00:12:47;100324.15;;;4.63;77.64
57024;BME280;42916;54.346;18.562;2023-04-29T00:15:15;100322.37;;;4.61;77.63
57024;BME280;42916;54.346;18.562;2023-04-29T00:17:42;100319.56;;;4.61;77.27
57024;BME280;42916;54.346;18.562;2023-04-29T00:20:09;100315.18;;;4.62;76.76
57024;BME280;42916;54.346;18.562;2023-04-29T00:22:36;100316.16;;;4.66;76.37
57024;BME280;42916;54.346;18.562;2023-04-29T00:25:03;100311.83;;;4.68;76.08
57024;BME280;42916;54.346;18.562;2023-04-29T00:27:31;100312.65;;;4.70;75.88
57024;BME280;42916;54.346;18.562;2023-04-29T00:29:58;100306.21;;;4.71;75.36
57024;BME280;42916;54.346;18.562;2023-04-29T00:32:25;100303.92;;;4.72;75.18
57024;BME280;42916;54.346;18.562;2023-04-29T00:34:52;100302.77;;;4.73;74.95
57024;BME280;42916;54.346;18.562;2023-04-29T00:37:18;100302.30;;;4.72;74.73
57024;BME280;42916;54.346;18.562;2023-04-29T00:39:45;100303.73;;;4.71;74.59
57024;BME280;42916;54.346;18.562;2023-04-29T00:42:12;100297.70;;;4.69;74.21
57024;BME280;42916;54.346;18.562;2023-04-29T00:44:39;100301.93;;;4.67;74.22
57024;BME280;42916;54.346;18.562;2023-04-29T00:47:05;100303.23;;;4.64;74.14
57024;BME280;42916;54.346;18.562;2023-04-29T00:49:38;100297.91;;;4.61;74.28
57024;BME280;42916;54.346;18.562;2023-04-29T00:52:05;100301.79;;;4.58;74.04
57024;BME280;42916;54.346;18.562;2023-04-29T00:54:34;100293.02;;;4.55;73.84
57024;BME280;42916;54.346;18.562;2023-04-29T00:57:01;100296.42;;;4.54;74.02
57024;BME280;42916;54.346;18.562;2023-04-29T00:59:29;100293.95;;;4.52;73.47
57024;BME280;42916;54.346;18.562;2023-04-29T01:02:02;100291.60;;;4.51;73.68
57024;BME280;42916;54.346;18.562;2023-04-29T01:04:30;100294.59;;;4.49;73.59
57024;BME280;42916;54.346;18.562;2023-04-29T01:09:46;100289.48;;;4.44;73.38
57024;BME280;42916;54.346;18.562;2023-04-29T01:12:23;100287.39;;;4.42;73.43
57024;BME280;42916;54.346;18.562;2023-04-29T01:15:20;100288.52;;;4.40;73.40
57024;BME280;42916;54.346;18.562;2023-04-29T01:20:39;100284.92;;;4.40;73.44
57024;BME280;42916;54.346;18.562;2023-04-29T01:23:06;100280.71;;;4.41;73.30
57024;BME280;42916;54.346;18.562;2023-04-29T01:25:33;100279.23;;;4.43;73.48
57024;BME280;42916;54.346;18.562;2023-04-29T01:30:51;100275.89;;;4.52;73.08
57024;BME280;42916;54.346;18.562;2023-04-29T01:38:52;100271.16;;;4.57;72.73
57024;BME280;42916;54.346;18.562;2023-04-29T01:41:43;100273.29;;;4.58;72.86
57024;BME280;42916;54.346;18.562;2023-04-29T01:44:28;100272.03;;;4.58;72.82
57024;BME280;42916;54.346;18.562;2023-04-29T01:46:55;100267.23;;;4.57;72.84
57024;BME280;42916;54.346;18.562;2023-04-29T01:49:29;100263.97;;;4.56;73.06
57024;BME280;42916;54.346;18.562;2023-04-29T01:51:56;100261.36;;;4.54;73.20
57024;BME280;42916;54.346;18.562;2023-04-29T01:54:23;100263.86;;;4.53;72.98
57024;BME280;42916;54.346;18.562;2023-04-29T01:56:50;100258.40;;;4.52;73.05
57024;BME280;42916;54.346;18.562;2023-04-29T01:59:36;100258.31;;;4.51;73.14
57024;BME280;42916;54.346;18.562;2023-04-29T02:02:25;100252.33;;;4.49;73.27
57024;BME280;42916;54.346;18.562;2023-04-29T02:04:59;100249.18;;;4.49;73.56
57024;BME280;42916;54.346;18.562;2023-04-29T02:07:26;100247.16;;;4.48;73.60
57024;BME280;42916;54.346;18.562;2023-04-29T02:09:53;100246.64;;;4.49;73.79
57024;BME280;42916;54.346;18.562;2023-04-29T02:12:21;100241.35;;;4.52;73.99
57024;BME280;42916;54.346;18.562;2023-04-29T02:14:51;100242.36;;;4.57;74.22
57024;BME280;42916;54.346;18.562;2023-04-29T02:17:18;100236.59;;;4.59;74.14
57024;BME280;42916;54.346;18.562;2023-04-29T02:19:45;100238.45;;;4.64;74.49
57024;BME280;42916;54.346;18.562;2023-04-29T02:22:12;100235.52;;;4.67;74.54
57024;BME280;42916;54.346;18.562;2023-04-29T02:24:41;100233.55;;;4.69;74.38
57024;BME280;42916;54.346;18.562;2023-04-29T02:27:07;100234.12;;;4.70;74.66
57024;BME280;42916;54.346;18.562;2023-04-29T02:29:35;100229.70;;;4.70;74.75
57024;BME280;42916;54.346;18.562;2023-04-29T02:32:02;100228.92;;;4.68;74.75
57024;BME280;42916;54.346;18.562;2023-04-29T02:34:30;100225.30;;;4.65;74.63
57024;BME280;42916;54.346;18.562;2023-04-29T02:36:57;100226.39;;;4.64;74.81
57024;BME280;42916;54.346;18.562;2023-04-29T02:39:24;100222.48;;;4.61;74.58
57024;BME280;42916;54.346;18.562;2023-04-29T02:41:54;100220.47;;;4.58;74.59
57024;BME280;42916;54.346;18.562;2023-04-29T02:44:21;100216.03;;;4.53;74.64
57024;BME280;42916;54.346;18.562;2023-04-29T02:46:48;100214.41;;;4.49;74.56
57024;BME280;42916;54.346;18.562;2023-04-29T02:49:15;100209.91;;;4.47;74.77
57024;BME280;42916;54.346;18.562;2023-04-29T02:51:42;100206.77;;;4.45;74.41
57024;BME280;42916;54.346;18.562;2023-04-29T02:54:09;100210.88;;;4.45;75.06
57024;BME280;42916;54.346;18.562;2023-04-29T02:56:37;100209.46;;;4.45;75.50
57024;BME280;42916;54.346;18.562;2023-04-29T02:59:03;100209.95;;;4.47;75.43
57024;BME280;42916;54.346;18.562;2023-04-29T03:01:30;100209.88;;;4.46;75.50
57024;BME280;42916;54.346;18.562;2023-04-29T03:03:57;100208.02;;;4.49;75.95
57024;BME280;42916;54.346;18.562;2023-04-29T03:06:24;100204.27;;;4.51;75.83
57024;BME280;42916;54.346;18.562;2023-04-29T03:08:51;100204.13;;;4.54;75.94
57024;BME280;42916;54.346;18.562;2023-04-29T03:11:19;100204.02;;;4.57;76.62
57024;BME280;42916;54.346;18.562;2023-04-29T03:13:46;100206.78;;;4.59;76.31
57024;BME280;42916;54.346;18.562;2023-04-29T03:16:13;100209.02;;;4.61;76.11
57024;BME280;42916;54.346;18.562;2023-04-29T03:18:40;100213.58;;;4.64;76.44
57024;BME280;42916;54.346;18.562;2023-04-29T03:21:07;100216.55;;;4.65;76.44
57024;BME280;42916;54.346;18.562;2023-04-29T03:23:34;100213.25;;;4.67;76.39
57024;BME280;42916;54.346;18.562;2023-04-29T03:26:01;100211.18;;;4.69;76.49
57024;BME280;42916;54.346;18.562;2023-04-29T03:28:28;100206.36;;;4.68;76.46
57024;BME280;42916;54.346;18.562;2023-04-29T03:30:55;100203.68;;;4.68;76.75
57024;BME280;42916;54.346;18.562;2023-04-29T03:33:22;100200.02;;;4.67;76.64
57024;BME280;42916;54.346;18.562;2023-04-29T03:35:50;100199.39;;;4.69;76.61
57024;BME280;42916;54.346;18.562;2023-04-29T03:38:34;100199.34;;;4.71;76.41
57024;BME280;42916;54.346;18.562;2023-04-29T03:41:01;100199.69;;;4.74;76.31
57024;BME280;42916;54.346;18.562;2023-04-29T03:43:28;100199.61;;;4.77;76.15
57024;BME280;42916;54.346;18.562;2023-04-29T03:45:55;100198.00;;;4.80;75.95
57024;BME280;42916;54.346;18.562;2023-04-29T03:48:22;100195.65;;;4.84;76.00
57024;BME280;42916;54.346;18.562;2023-04-29T03:50:49;100201.47;;;4.87;75.73
57024;BME280;42916;54.346;18.562;2023-04-29T03:53:16;100202.55;;;4.91;75.51
57024;BME280;42916;54.346;18.562;2023-04-29T03:55:44;100201.93;;;4.96;75.36
57024;BME280;42916;54.346;18.562;2023-04-29T03:58:11;100201.71;;;4.99;75.09
57024;BME280;42916;54.346;18.562;2023-04-29T04:00:37;100202.79;;;5.04;75.02
57024;BME280;42916;54.346;18.562;2023-04-29T04:03:06;100198.27;;;5.08;74.62
57024;BME280;42916;54.346;18.562;2023-04-29T04:05:35;100201.53;;;5.13;74.36
57024;BME280;42916;54.346;18.562;2023-04-29T04:08:07;100198.02;;;5.19;74.45
57024;BME280;42916;54.346;18.562;2023-04-29T04:10:33;100194.95;;;5.22;73.89
57024;BME280;42916;54.346;18.562;2023-04-29T04:13:02;100193.23;;;5.28;73.73
57024;BME280;42916;54.346;18.562;2023-04-29T04:15:28;100197.04;;;5.33;73.76
57024;BME280;42916;54.346;18.562;2023-04-29T04:17:55;100192.98;;;5.38;73.27
57024;BME280;42916;54.346;18.562;2023-04-29T04:20:22;100193.08;;;5.44;72.83
57024;BME280;42916;54.346;18.562;2023-04-29T04:22:49;100193.64;;;5.50;72.65
57024;BME280;42916;54.346;18.562;2023-04-29T04:25:24;100191.27;;;5.56;72.35
57024;BME280;42916;54.346;18.562;2023-04-29T04:27:52;100191.00;;;5.61;72.10
57024;BME280;42916;54.346;18.562;2023-04-29T04:30:31;100188.98;;;5.69;71.74
57024;BME280;42916;54.346;18.562;2023-04-29T04:32:58;100184.15;;;5.76;71.77
57024;BME280;42916;54.346;18.562;2023-04-29T04:35:25;100186.00;;;5.84;71.50
57024;BME280;42916;54.346;18.562;2023-04-29T04:37:52;100188.30;;;5.92;71.29
57024;BME280;42916;54.346;18.562;2023-04-29T04:40:19;100183.70;;;5.99;71.00
57024;BME280;42916;54.346;18.562;2023-04-29T04:43:16;100186.62;;;6.07;70.59
57024;BME280;42916;54.346;18.562;2023-04-29T04:45:43;100182.86;;;6.14;70.53
57024;BME280;42916;54.346;18.562;2023-04-29T04:48:10;100181.67;;;6.21;70.25
57024;BME280;42916;54.346;18.562;2023-04-29T04:50:39;100179.42;;;6.26;69.98
57024;BME280;42916;54.346;18.562;2023-04-29T04:53:06;100177.62;;;6.30;69.69
57024;BME280;42916;54.346;18.562;2023-04-29T04:56:00;100181.14;;;6.36;69.53
57024;BME280;42916;54.346;18.562;2023-04-29T04:58:27;100179.98;;;6.43;69.40
57024;BME280;42916;54.346;18.562;2023-04-29T05:00:53;100180.42;;;6.49;69.35
57024;BME280;42916;54.346;18.562;2023-04-29T05:03:20;100177.95;;;6.55;69.05
57024;BME280;42916;54.346;18.562;2023-04-29T05:05:57;100178.13;;;6.60;68.74
57024;BME280;42916;54.346;18.562;2023-04-29T05:08:25;100180.67;;;6.64;68.56
57024;BME280;42916;54.346;18.562;2023-04-29T05:10:54;100181.55;;;6.68;68.27
57024;BME280;42916;54.346;18.562;2023-04-29T05:13:21;100180.20;;;6.72;68.11
57024;BME280;42916;54.346;18.562;2023-04-29T05:15:48;100180.92;;;6.75;67.98
57024;BME280;42916;54.346;18.562;2023-04-29T05:18:19;100179.09;;;6.78;67.82
57024;BME280;42916;54.346;18.562;2023-04-29T05:20:47;100180.58;;;6.82;67.81
57024;BME280;42916;54.346;18.562;2023-04-29T05:23:14;100181.89;;;6.85;67.64
57024;BME280;42916;54.346;18.562;2023-04-29T05:25:42;100182.69;;;6.89;67.57
57024;BME280;42916;54.346;18.562;2023-04-29T05:28:09;100183.98;;;6.91;67.37
57024;BME280;42916;54.346;18.562;2023-04-29T05:30:37;100183.84;;;6.94;67.15
57024;BME280;42916;54.346;18.562;2023-04-29T05:33:04;100184.18;;;6.96;67.13
57024;BME280;42916;54.346;18.562;2023-04-29T05:35:31;100184.54;;;7.02;67.08
57024;BME280;42916;54.346;18.562;2023-04-29T05:37:58;100187.08;;;7.09;67.19
57024;BME280;42916;54.346;18.562;2023-04-29T05:40:45;100182.91;;;7.17;67.08
57024;BME280;42916;54.346;18.562;2023-04-29T05:43:32;100181.52;;;7.26;66.91
57024;BME280;42916;54.346;18.562;2023-04-29T05:45:59;100176.72;;;7.33;66.70
57024;BME280;42916;54.346;18.562;2023-04-29T05:48:26;100177.27;;;7.45;66.71
57024;BME280;42916;54.346;18.562;2023-04-29T05:50:54;100178.48;;;7.57;66.63
57024;BME280;42916;54.346;18.562;2023-04-29T05:53:21;100179.23;;;7.66;66.36
57024;BME280;42916;54.346;18.562;2023-04-29T05:55:48;100182.89;;;7.75;66.08
57024;BME280;42916;54.346;18.562;2023-04-29T05:58:16;100176.02;;;7.84;66.04
57024;BME280;42916;54.346;18.562;2023-04-29T06:00:43;100177.35;;;7.95;65.78
57024;BME280;42916;54.346;18.562;2023-04-29T06:03:13;100175.55;;;8.03;65.66
57024;BME280;42916;54.346;18.562;2023-04-29T06:05:40;100171.64;;;8.12;65.30
57024;BME280;42916;54.346;18.562;2023-04-29T06:08:31;100170.00;;;8.21;65.04
57024;BME280;42916;54.346;18.562;2023-04-29T06:11:03;100166.25;;;8.27;64.48
57024;BME280;42916;54.346;18.562;2023-04-29T06:13:31;100168.22;;;8.35;64.68
57024;BME280;42916;54.346;18.562;2023-04-29T06:15:58;100169.02;;;8.36;64.53
57024;BME280;42916;54.346;18.562;2023-04-29T06:18:31;100168.00;;;8.43;64.40
57024;BME280;42916;54.346;18.562;2023-04-29T06:20:58;100167.40;;;8.49;64.27
57024;BME280;42916;54.346;18.562;2023-04-29T06:23:25;100166.08;;;8.55;64.36
57024;BME280;42916;54.346;18.562;2023-04-29T06:25:52;100163.61;;;8.63;64.04
57024;BME280;42916;54.346;18.562;2023-04-29T06:28:19;100163.05;;;8.70;63.88
57024;BME280;42916;54.346;18.562;2023-04-29T06:30:46;100166.63;;;8.74;63.51
57024;BME280;42916;54.346;18.562;2023-04-29T06:33:13;100162.22;;;8.80;63.47
57024;BME280;42916;54.346;18.562;2023-04-29T06:35:40;100159.21;;;8.85;63.41
57024;BME280;42916;54.346;18.562;2023-04-29T06:38:27;100157.53;;;8.90;63.16
57024;BME280;42916;54.346;18.562;2023-04-29T06:41:01;100157.64;;;8.94;62.86
57024;BME280;42916;54.346;18.562;2023-04-29T06:43:32;100161.05;;;8.97;62.70
57024;BME280;42916;54.346;18.562;2023-04-29T06:46:27;100165.01;;;9.00;62.72
57024;BME280;42916;54.346;18.562;2023-04-29T06:49:02;100167.43;;;9.03;62.63
57024;BME280;42916;54.346;18.562;2023-04-29T06:51:30;100170.39;;;9.05;62.62
57024;BME280;42916;54.346;18.562;2023-04-29T06:53:58;100166.40;;;9.07;62.47
57024;BME280;42916;54.346;18.562;2023-04-29T06:56:25;100167.46;;;9.10;62.44
57024;BME280;42916;54.346;18.562;2023-04-29T06:58:52;100161.57;;;9.13;62.18
57024;BME280;42916;54.346;18.562;2023-04-29T07:01:19;100151.45;;;9.18;62.35
57024;BME280;42916;54.346;18.562;2023-04-29T07:03:45;100148.85;;;9.27;62.31
57024;BME280;42916;54.346;18.562;2023-04-29T07:06:12;100149.17;;;9.35;62.13
57024;BME280;42916;54.346;18.562;2023-04-29T07:08:39;100147.09;;;9.44;62.22
57024;BME280;42916;54.346;18.562;2023-04-29T07:11:05;100151.30;;;9.51;61.91
57024;BME280;42916;54.346;18.562;2023-04-29T07:13:32;100147.71;;;9.56;61.25
57024;BME280;42916;54.346;18.562;2023-04-29T07:15:59;100146.85;;;9.60;61.43
57024;BME280;42916;54.346;18.562;2023-04-29T07:18:27;100149.14;;;9.67;61.45
57024;BME280;42916;54.346;18.562;2023-04-29T07:21:00;100149.48;;;9.75;61.43
57024;BME280;42916;54.346;18.562;2023-04-29T07:23:27;100146.40;;;9.86;61.27
57024;BME280;42916;54.346;18.562;2023-04-29T07:25:54;100150.08;;;9.95;61.07
57024;BME280;42916;54.346;18.562;2023-04-29T07:28:21;100154.83;;;10.03;60.99
57024;BME280;42916;54.346;18.562;2023-04-29T07:30:47;100154.51;;;10.10;60.81
57024;BME280;42916;54.346;18.562;2023-04-29T07:33:14;100151.70;;;10.19;60.82
57024;BME280;42916;54.346;18.562;2023-04-29T07:35:41;100151.82;;;10.27;60.59
57024;BME280;42916;54.346;18.562;2023-04-29T07:38:10;100149.73;;;10.32;60.57
57024;BME280;42916;54.346;18.562;2023-04-29T07:40:38;100143.65;;;10.34;60.14
57024;BME280;42916;54.346;18.562;2023-04-29T07:43:05;100144.95;;;10.34;60.01
57024;BME280;42916;54.346;18.562;2023-04-29T07:45:33;100136.55;;;10.38;60.05
57024;BME280;42916;54.346;18.562;2023-04-29T07:48:00;100140.98;;;10.42;60.07
57024;BME280;42916;54.346;18.562;2023-04-29T07:50:27;100146.85;;;10.46;60.13
57024;BME280;42916;54.346;18.562;2023-04-29T07:52:53;100143.29;;;10.51;60.31
57024;BME280;42916;54.346;18.562;2023-04-29T07:55:22;100141.37;;;10.57;60.35
57024;BME280;42916;54.346;18.562;2023-04-29T07:57:49;100142.83;;;10.66;60.64
57024;BME280;42916;54.346;18.562;2023-04-29T08:00:16;100146.42;;;10.73;60.66
57024;BME280;42916;54.346;18.562;2023-04-29T08:02:44;100143.84;;;10.85;60.63
57024;BME280;42916;54.346;18.562;2023-04-29T08:05:13;100146.73;;;10.98;60.67
57024;BME280;42916;54.346;18.562;2023-04-29T08:07:40;100146.91;;;11.14;60.76
57024;BME280;42916;54.346;18.562;2023-04-29T08:10:07;100144.59;;;11.29;60.44
57024;BME280;42916;54.346;18.562;2023-04-29T08:12:36;100143.51;;;11.46;60.09
57024;BME280;42916;54.346;18.562;2023-04-29T08:15:04;100141.31;;;11.60;59.75
57024;BME280;42916;54.346;18.562;2023-04-29T08:17:31;100140.48;;;11.72;59.51
57024;BME280;42916;54.346;18.562;2023-04-29T08:19:58;100144.14;;;11.79;59.38
57024;BME280;42916;54.346;18.562;2023-04-29T08:22:25;100137.88;;;11.85;59.37
57024;BME280;42916;54.346;18.562;2023-04-29T08:24:51;100135.98;;;11.96;59.30
57024;BME280;42916;54.346;18.562;2023-04-29T08:27:18;100132.98;;;12.05;59.24
57024;BME280;42916;54.346;18.562;2023-04-29T08:29:46;100133.05;;;12.12;58.94
57024;BME280;42916;54.346;18.562;2023-04-29T08:32:13;100124.75;;;12.19;58.99
57024;BME280;42916;54.346;18.562;2023-04-29T08:34:40;100117.45;;;12.31;58.86
57024;BME280;42916;54.346;18.562;2023-04-29T08:37:07;100112.42;;;12.39;58.70
57024;BME280;42916;54.346;18.562;2023-04-29T08:39:34;100112.78;;;12.45;58.53
57024;BME280;42916;54.346;18.562;2023-04-29T08:42:07;100111.73;;;12.52;58.49
57024;BME280;42916;54.346;18.562;2023-04-29T08:44:34;100109.31;;;12.61;58.39
57024;BME280;42916;54.346;18.562;2023-04-29T08:47:02;100112.13;;;12.73;58.10
57024;BME280;42916;54.346;18.562;2023-04-29T08:49:29;100118.05;;;12.87;58.00
57024;BME280;42916;54.346;18.562;2023-04-29T08:51:58;100118.77;;;13.02;57.72
57024;BME280;42916;54.346;18.562;2023-04-29T08:54:25;100119.66;;;13.12;57.32
57024;BME280;42916;54.346;18.562;2023-04-29T08:56:54;100121.97;;;13.24;57.12
57024;BME280;42916;54.346;18.562;2023-04-29T08:59:24;100126.20;;;13.36;56.80
57024;BME280;42916;54.346;18.562;2023-04-29T09:01:52;100118.29;;;13.45;56.73
57024;BME280;42916;54.346;18.562;2023-04-29T09:07:38;100112.80;;;13.83;56.47
57024;BME280;42916;54.346;18.562;2023-04-29T09:10:09;100110.05;;;14.01;56.06
57024;BME280;42916;54.346;18.562;2023-04-29T09:12:36;100112.42;;;14.13;55.76
57024;BME280;42916;54.346;18.562;2023-04-29T09:15:03;100112.57;;;14.21;55.35
57024;BME280;42916;54.346;18.562;2023-04-29T09:17:46;100113.96;;;14.37;55.13
57024;BME280;42916;54.346;18.562;2023-04-29T09:22:51;100116.88;;;14.69;54.64
57024;BME280;42916;54.346;18.562;2023-04-29T09:25:18;100110.92;;;14.82;54.28
57024;BME280;42916;54.346;18.562;2023-04-29T09:27:46;100107.88;;;14.90;54.11
57024;BME280;42916;54.346;18.562;2023-04-29T09:30:13;100111.45;;;15.02;53.98
57024;BME280;42916;54.346;18.562;2023-04-29T09:32:42;100106.84;;;15.13;53.70
57024;BME280;42916;54.346;18.562;2023-04-29T09:35:24;100105.54;;;15.21;53.46
57024;BME280;42916;54.346;18.562;2023-04-29T09:37:51;100109.61;;;15.33;52.95
57024;BME280;42916;54.346;18.562;2023-04-29T09:40:32;100116.05;;;15.36;52.70
57024;BME280;42916;54.346;18.562;2023-04-29T09:43:00;100119.35;;;15.42;52.72
57024;BME280;42916;54.346;18.562;2023-04-29T09:45:35;100136.56;;;15.51;52.60
57024;BME280;42916;54.346;18.562;2023-04-29T09:48:03;100139.95;;;15.60;52.75
57024;BME280;42916;54.346;18.562;2023-04-29T09:50:34;100131.34;;;15.72;52.51
57024;BME280;42916;54.346;18.562;2023-04-29T09:53:05;100128.59;;;15.78;52.17
57024;BME280;42916;54.346;18.562;2023-04-29T09:55:57;100119.08;;;15.84;52.28
57024;BME280;42916;54.346;18.562;2023-04-29T09:58:32;100123.27;;;15.89;52.21
57024;BME280;42916;54.346;18.562;2023-04-29T10:01:03;100121.64;;;15.91;51.85
57024;BME280;42916;54.346;18.562;2023-04-29T10:03:32;100125.02;;;15.94;52.06
57024;BME280;42916;54.346;18.562;2023-04-29T10:06:01;100123.06;;;15.95;51.67
57024;BME280;42916;54.346;18.562;2023-04-29T10:08:29;100122.30;;;15.80;51.30
57024;BME280;42916;54.346;18.562;2023-04-29T10:11:01;100118.14;;;15.71;51.82
57024;BME280;42916;54.346;18.562;2023-04-29T10:13:28;100117.06;;;15.68;51.74
57024;BME280;42916;54.346;18.562;2023-04-29T10:16:33;100118.14;;;15.67;51.79
57024;BME280;42916;54.346;18.562;2023-04-29T10:19:06;100124.46;;;15.65;51.69
57024;BME280;42916;54.346;18.562;2023-04-29T10:21:33;100125.47;;;15.61;51.49
57024;BME280;42916;54.346;18.562;2023-04-29T10:24:01;100125.59;;;15.63;51.64
57024;BME280;42916;54.346;18.562;2023-04-29T10:26:28;100122.75;;;15.76;51.79
57024;BME280;42916;54.346;18.562;2023-04-29T10:28:55;100122.07;;;15.92;51.57
57024;BME280;42916;54.346;18.562;2023-04-29T10:31:26;100122.95;;;15.88;51.21
57024;BME280;42916;54.346;18.562;2023-04-29T10:33:56;100121.48;;;15.75;51.22
57024;BME280;42916;54.346;18.562;2023-04-29T10:36:24;100117.44;;;15.62;51.32
57024;BME280;42916;54.346;18.562;2023-04-29T10:38:56;100117.61;;;15.49;51.48
57024;BME280;42916;54.346;18.562;2023-04-29T10:41:27;100114.12;;;15.35;51.70
57024;BME280;42916;54.346;18.562;2023-04-29T10:43:58;100113.02;;;15.28;51.86
57024;BME280;42916;54.346;18.562;2023-04-29T10:46:25;100116.27;;;15.22;51.90
57024;BME280;42916;54.346;18.562;2023-04-29T10:49:10;100111.83;;;15.18;52.20
57024;BME280;42916;54.346;18.562;2023-04-29T10:51:41;100113.70;;;15.17;52.24
57024;BME280;42916;54.346;18.562;2023-04-29T10:54:16;100116.54;;;15.09;52.19
57024;BME280;42916;54.346;18.562;2023-04-29T10:56:49;100117.41;;;15.00;52.47
57024;BME280;42916;54.346;18.562;2023-04-29T11:01:58;100113.01;;;14.78;53.10
57024;BME280;42916;54.346;18.562;2023-04-29T11:04:25;100115.08;;;14.67;53.82
57024;BME280;42916;54.346;18.562;2023-04-29T11:06:56;100117.25;;;14.56;54.29
57024;BME280;42916;54.346;18.562;2023-04-29T11:09:34;100109.87;;;14.49;54.82
57024;BME280;42916;54.346;18.562;2023-04-29T11:12:03;100109.23;;;14.47;54.98
57024;BME280;42916;54.346;18.562;2023-04-29T11:14:40;100111.49;;;14.44;55.40
57024;BME280;42916;54.346;18.562;2023-04-29T11:17:14;100111.05;;;14.52;55.48
57024;BME280;42916;54.346;18.562;2023-04-29T11:19:44;100112.64;;;14.60;55.44
57024;BME280;42916;54.346;18.562;2023-04-29T11:24:59;100107.39;;;14.71;55.06
57024;BME280;42916;54.346;18.562;2023-04-29T11:27:29;100103.08;;;14.73;55.13
57024;BME280;42916;54.346;18.562;2023-04-29T11:29:57;100103.09;;;14.78;55.43
57024;BME280;42916;54.346;18.562;2023-04-29T11:32:26;100104.57;;;14.86;55.65
57024;BME280;42916;54.346;18.562;2023-04-29T11:34:54;100104.33;;;14.90;55.76
57024;BME280;42916;54.346;18.562;2023-04-29T11:37:23;100103.47;;;14.92;55.79
57024;BME280;42916;54.346;18.562;2023-04-29T11:39:50;100101.77;;;14.95;56.02
57024;BME280;42916;54.346;18.562;2023-04-29T11:42:21;100099.48;;;15.02;56.28
57024;BME280;42916;54.346;18.562;2023-04-29T11:44:52;100101.11;;;15.11;56.07
57024;BME280;42916;54.346;18.562;2023-04-29T11:47:19;100107.95;;;15.21;55.76
57024;BME280;42916;54.346;18.562;2023-04-29T11:49:47;100103.32;;;15.28;55.48
57024;BME280;42916;54.346;18.562;2023-04-29T11:52:14;100101.36;;;15.30;55.53
57024;BME280;42916;54.346;18.562;2023-04-29T11:54:42;100105.27;;;15.34;55.29
57024;BME280;42916;54.346;18.562;2023-04-29T11:57:09;100103.35;;;15.42;55.17
57024;BME280;42916;54.346;18.562;2023-04-29T11:59:36;100102.58;;;15.51;54.96
57024;BME280;42916;54.346;18.562;2023-04-29T12:02:03;100103.69;;;15.57;54.50
57024;BME280;42916;54.346;18.562;2023-04-29T12:04:30;100098.59;;;15.60;53.99
57024;BME280;42916;54.346;18.562;2023-04-29T12:06:56;100098.42;;;15.57;53.82
57024;BME280;42916;54.346;18.562;2023-04-29T12:09:25;100095.66;;;15.54;53.94
57024;BME280;42916;54.346;18.562;2023-04-29T12:11:52;100093.67;;;15.60;53.77
57024;BME280;42916;54.346;18.562;2023-04-29T12:14:18;100090.80;;;15.54;53.32
57024;BME280;42916;54.346;18.562;2023-04-29T12:16:45;100086.20;;;15.52;53.40
57024;BME280;42916;54.346;18.562;2023-04-29T12:19:13;100083.98;;;15.54;53.46
57024;BME280;42916;54.346;18.562;2023-04-29T12:21:47;100079.88;;;15.55;53.30
57024;BME280;42916;54.346;18.562;2023-04-29T12:24:14;100079.65;;;15.51;52.87
57024;BME280;42916;54.346;18.562;2023-04-29T12:26:44;100073.17;;;15.44;52.80
57024;BME280;42916;54.346;18.562;2023-04-29T12:29:12;100073.35;;;15.47;53.16
57024;BME280;42916;54.346;18.562;2023-04-29T12:31:39;100070.48;;;15.50;53.19
57024;BME280;42916;54.346;18.562;2023-04-29T12:34:06;100073.52;;;15.50;53.24
57024;BME280;42916;54.346;18.562;2023-04-29T12:36:34;100074.02;;;15.42;52.94
57024;BME280;42916;54.346;18.562;2023-04-29T12:39:05;100076.61;;;15.34;53.21
57024;BME280;42916;54.346;18.562;2023-04-29T12:41:39;100077.94;;;15.29;53.54
57024;BME280;42916;54.346;18.562;2023-04-29T12:44:07;100080.46;;;15.24;53.89
57024;BME280;42916;54.346;18.562;2023-04-29T12:46:39;100079.46;;;15.21;53.92
57024;BME280;42916;54.346;18.562;2023-04-29T12:49:06;100081.65;;;15.16;54.00
57024;BME280;42916;54.346;18.562;2023-04-29T12:51:34;100079.54;;;15.06;54.46
57024;BME280;42916;54.346;18.562;2023-04-29T12:54:03;100083.02;;;14.98;54.64
57024;BME280;42916;54.346;18.562;2023-04-29T12:56:30;100081.05;;;14.84;54.60
57024;BME280;42916;54.346;18.562;2023-04-29T12:59:07;100082.20;;;14.79;54.98
57024;BME280;42916;54.346;18.562;2023-04-29T13:01:36;100076.83;;;14.76;54.84
57024;BME280;42916;54.346;18.562;2023-04-29T13:04:03;100076.88;;;14.71;54.98
57024;BME280;42916;54.346;18.562;2023-04-29T13:06:31;100072.04;;;14.63;55.16
57024;BME280;42916;54.346;18.562;2023-04-29T13:08:58;100070.91;;;14.60;55.22
57024;BME280;42916;54.346;18.562;2023-04-29T13:11:25;100067.90;;;14.52;55.03
57024;BME280;42916;54.346;18.562;2023-04-29T13:13:51;100070.75;;;14.47;55.49
57024;BME280;42916;54.346;18.562;2023-04-29T13:16:18;100063.70;;;14.45;55.68
57024;BME280;42916;54.346;18.562;2023-04-29T13:18:45;100063.77;;;14.44;55.72
57024;BME280;42916;54.346;18.562;2023-04-29T13:21:11;100067.25;;;14.42;55.96